Time;durP1;ratioP1;P1;durP2;ratioP2;P2;SDS_P1;SDS_P2;PMS_P1;PMS_P2;Temp;Humidity;BMP_temperature;BMP_pressure;BME280_temperature;BME280_humidity;BME280_pressure;Samples;Min_cycle;Max_cycle;Signal;HPM_P1;HPM_P2
2022/05/05 00:01:36;;;;;;;9.90;4.20;;;7.10;99.90;;;;;;5015733;28;20041;-81
2022/05/05 00:04:02;;;;;;;11.80;4.60;;;7.10;99.90;;;;;;5015985;28;20068;-81
2022/05/05 00:06:28;;;;;;;10.98;4.78;;;7.00;99.90;;;;;;5015617;28;20033;-81
2022/05/05 00:08:54;;;;;;;10.30;4.50;;;7.00;99.90;;;;;;5015082;28;20053;-81
2022/05/05 00:16:48;;;;;;;12.90;4.82;;;6.90;99.90;;;;;;5015952;28;20111;-81
2022/05/05 00:19:13;;;;;;;15.50;4.82;;;6.90;99.90;;;;;;5015803;28;20045;-80
2022/05/05 00:21:39;;;;;;;9.52;5.10;;;7.00;99.90;;;;;;5018555;28;20420;-81
2022/05/05 00:24:06;;;;;;;8.82;4.57;;;6.90;99.90;;;;;;5019192;28;20045;-81
2022/05/05 00:26:32;;;;;;;12.45;4.07;;;6.90;99.90;;;;;;5016048;28;20108;-81
2022/05/05 00:28:58;;;;;;;12.02;4.95;;;6.90;99.90;;;;;;5015501;28;20041;-81
2022/05/05 00:31:23;;;;;;;7.55;4.53;;;6.90;99.90;;;;;;5033479;28;20077;-81
2022/05/05 00:33:49;;;;;;;9.57;4.35;;;6.90;99.90;;;;;;5016071;28;20506;-81
2022/05/05 00:36:15;;;;;;;11.93;4.50;;;6.90;99.90;;;;;;5016225;28;20033;-81
2022/05/05 00:38:41;;;;;;;10.32;5.10;;;6.90;99.90;;;;;;5015476;28;20176;-81
2022/05/05 00:41:06;;;;;;;12.07;5.18;;;6.80;99.90;;;;;;5016139;28;20163;-81
2022/05/05 00:43:33;;;;;;;14.02;4.68;;;6.80;99.90;;;;;;5015491;28;20480;-81
2022/05/05 00:46:00;;;;;;;8.07;4.05;;;6.80;99.90;;;;;;5015294;28;20052;-81
2022/05/05 00:48:26;;;;;;;7.57;4.32;;;6.80;99.90;;;;;;5016067;28;20099;-81
2022/05/05 00:50:52;;;;;;;9.15;4.80;;;6.80;99.90;;;;;;5015951;28;20080;-81
2022/05/05 00:53:17;;;;;;;8.15;4.75;;;6.80;99.90;;;;;;5016061;28;20428;-81
2022/05/05 00:55:44;;;;;;;9.57;4.78;;;6.80;99.90;;;;;;5020317;28;20160;-80
2022/05/05 00:58:09;;;;;;;11.85;5.35;;;6.70;99.90;;;;;;5003196;28;20044;-80
2022/05/05 01:00:35;;;;;;;10.02;4.55;;;6.70;99.90;;;;;;5019301;28;20033;-81
2022/05/05 01:03:01;;;;;;;12.52;5.70;;;6.70;99.90;;;;;;5019874;28;20037;-80
2022/05/05 01:05:28;;;;;;;14.18;4.93;;;6.70;99.90;;;;;;5019715;28;20041;-81
2022/05/05 01:07:56;;;;;;;14.00;5.13;;;6.60;99.90;;;;;;5019788;28;20630;-81
2022/05/05 01:10:22;;;;;;;15.55;5.63;;;6.60;99.90;;;;;;5019465;28;20045;-81
2022/05/05 01:12:48;;;;;;;9.30;5.05;;;6.60;99.90;;;;;;5019037;28;20045;-81
2022/05/05 01:15:13;;;;;;;9.73;4.70;;;6.60;99.90;;;;;;5019355;28;20049;-80
2022/05/05 01:17:39;;;;;;;10.45;5.15;;;6.60;99.90;;;;;;5018853;28;20477;-81
2022/05/05 01:20:19;;;;;;;15.57;4.50;;;6.60;99.90;;;;;;5035923;28;20041;-81
2022/05/05 01:22:45;;;;;;;11.52;6.22;;;6.60;99.90;;;;;;5002419;28;20044;-80
2022/05/05 01:28:10;;;;;;;13.05;5.00;;;6.60;99.90;;;;;;5019419;28;20056;-81
2022/05/05 01:30:40;;;;;;;15.93;5.45;;;6.70;99.90;;;;;;5019357;28;20129;-81
2022/05/05 01:33:30;;;;;;;10.50;4.70;;;6.80;99.90;;;;;;5019808;28;20084;-80
2022/05/05 01:35:58;;;;;;;15.65;5.70;;;6.80;99.90;;;;;;5019444;28;20050;-81
2022/05/05 01:38:30;;;;;;;12.40;5.00;;;6.80;99.90;;;;;;5036899;28;20124;-81
2022/05/05 01:40:55;;;;;;;10.73;5.53;;;6.80;99.90;;;;;;5018998;28;20037;-80
2022/05/05 01:43:21;;;;;;;11.90;4.50;;;6.80;99.90;;;;;;5019786;28;20573;-81
2022/05/05 01:45:47;;;;;;;12.10;5.63;;;6.80;99.90;;;;;;5019773;28;20049;-81
2022/05/05 01:48:13;;;;;;;8.98;4.82;;;6.80;99.90;;;;;;5019303;28;20128;-81
2022/05/05 01:50:39;;;;;;;12.63;5.25;;;6.70;99.90;;;;;;5022492;28;20038;-80
2022/05/05 01:53:05;;;;;;;11.65;5.03;;;6.70;99.90;;;;;;5032330;28;20069;-81
2022/05/05 01:55:32;;;;;;;7.53;4.75;;;6.70;99.90;;;;;;5029065;28;20033;-81
2022/05/05 01:58:02;;;;;;;13.52;5.13;;;6.60;99.90;;;;;;5013889;28;20049;-81
2022/05/05 02:00:28;;;;;;;8.63;4.43;;;6.70;99.90;;;;;;5012389;28;20041;-81
2022/05/05 02:02:54;;;;;;;14.85;5.63;;;6.70;99.90;;;;;;5013282;28;20365;-81
2022/05/05 02:05:20;;;;;;;14.88;5.82;;;6.60;99.90;;;;;;5030523;28;20037;-81
2022/05/05 02:07:46;;;;;;;10.05;5.70;;;6.60;99.90;;;;;;5013103;28;20511;-81
2022/05/05 02:10:15;;;;;;;13.13;5.03;;;6.60;99.90;;;;;;5012554;28;20038;-81
2022/05/05 02:12:41;;;;;;;9.93;4.95;;;6.60;99.90;;;;;;5013122;28;20492;-81
2022/05/05 02:15:08;;;;;;;9.68;5.45;;;6.50;99.90;;;;;;5012943;28;20045;-81
2022/05/05 02:17:39;;;;;;;9.63;6.47;;;6.50;99.90;;;;;;4996888;28;20045;-81
2022/05/05 02:20:08;;;;;;;15.95;5.55;;;6.50;99.90;;;;;;5013255;28;20033;-81
2022/05/05 02:22:34;;;;;;;8.75;5.25;;;6.50;99.90;;;;;;5015803;28;20056;-81
2022/05/05 02:24:59;;;;;;;14.05;5.00;;;6.50;99.90;;;;;;5015430;28;20180;-81
2022/05/05 02:27:25;;;;;;;12.13;5.05;;;6.40;99.90;;;;;;5013787;28;20065;-80
2022/05/05 02:29:52;;;;;;;14.00;5.45;;;6.40;99.90;;;;;;5012974;28;20046;-81
2022/05/05 02:32:19;;;;;;;10.27;5.80;;;6.40;99.90;;;;;;5013900;28;20060;-81
2022/05/05 02:34:46;;;;;;;16.02;5.40;;;6.40;99.90;;;;;;5016779;28;20077;-81
2022/05/05 02:39:55;;;;;;;10.65;5.15;;;6.50;99.90;;;;;;5016257;28;20111;-81
2022/05/05 02:42:21;;;;;;;11.07;5.13;;;6.40;99.90;;;;;;5017306;28;20041;-81
2022/05/05 02:44:47;;;;;;;13.43;5.85;;;6.40;99.90;;;;;;5017228;28;20132;-81
2022/05/05 02:47:13;;;;;;;13.32;5.68;;;6.40;99.90;;;;;;5000755;28;20045;-81
2022/05/05 02:49:38;;;;;;;17.30;5.80;;;6.40;99.90;;;;;;5000961;28;20045;-80
2022/05/05 02:52:05;;;;;;;13.10;5.60;;;6.40;99.90;;;;;;5022157;28;20081;-81
2022/05/05 02:57:15;;;;;;;12.85;6.28;;;6.30;99.90;;;;;;5021618;28;20604;-80
2022/05/05 02:59:41;;;;;;;12.65;6.07;;;6.30;99.90;;;;;;5021863;28;20132;-80
2022/05/05 03:02:07;;;;;;;18.30;6.30;;;6.30;99.90;;;;;;5021625;28;20127;-80
2022/05/05 03:04:33;;;;;;;11.23;5.57;;;6.30;99.90;;;;;;5022190;28;20045;-81
2022/05/05 03:06:59;;;;;;;14.38;5.93;;;6.40;99.90;;;;;;5021658;28;20116;-80
2022/05/05 03:09:25;;;;;;;12.70;5.32;;;6.30;99.90;;;;;;5021663;28;20400;-80
2022/05/05 03:11:50;;;;;;;10.65;5.55;;;6.30;99.90;;;;;;5021722;28;20049;-80
2022/05/05 03:14:16;;;;;;;10.68;6.32;;;6.20;99.90;;;;;;5021421;28;20121;-80
2022/05/05 03:16:41;;;;;;;17.83;6.72;;;6.10;99.90;;;;;;5054598;28;20120;-81
2022/05/05 03:19:07;;;;;;;12.73;6.35;;;6.10;99.90;;;;;;5022006;28;20388;-81
2022/05/05 03:21:32;;;;;;;8.25;5.65;;;6.00;99.90;;;;;;5021305;28;20040;-80
2022/05/05 03:23:58;;;;;;;16.85;6.35;;;5.90;99.90;;;;;;5022533;28;20053;-80
2022/05/05 03:26:24;;;;;;;15.20;6.22;;;5.90;99.90;;;;;;5022083;28;20041;-80
2022/05/05 03:28:49;;;;;;;11.48;5.50;;;5.80;99.90;;;;;;5022187;28;20072;-80
2022/05/05 03:31:15;;;;;;;10.50;5.97;;;5.70;99.90;;;;;;5021898;28;20042;-80
2022/05/05 03:33:41;;;;;;;10.80;5.43;;;5.70;99.90;;;;;;5021413;28;20056;-80
2022/05/05 03:36:06;;;;;;;17.10;6.53;;;5.60;99.90;;;;;;5021396;28;20056;-80
2022/05/05 03:38:32;;;;;;;12.70;6.20;;;5.60;99.90;;;;;;5021607;28;20076;-81
2022/05/05 03:40:58;;;;;;;12.20;6.25;;;5.60;99.90;;;;;;5021050;28;20121;-81
2022/05/05 03:43:23;;;;;;;16.17;6.57;;;5.50;99.90;;;;;;5020640;28;20069;-80
2022/05/05 03:45:49;;;;;;;14.82;6.57;;;5.50;99.90;;;;;;5020548;28;20064;-80
2022/05/05 03:48:14;;;;;;;18.25;6.40;;;5.50;99.90;;;;;;5020991;28;20408;-80
2022/05/05 03:50:40;;;;;;;14.40;6.55;;;5.50;99.90;;;;;;5019521;28;20041;-80
2022/05/05 03:53:05;;;;;;;14.75;7.60;;;5.50;99.90;;;;;;5021217;28;20041;-80
2022/05/05 03:55:31;;;;;;;12.05;6.25;;;5.50;99.90;;;;;;5020988;28;20055;-80
2022/05/05 03:57:57;;;;;;;13.10;6.40;;;5.60;99.90;;;;;;5020221;28;20083;-80
2022/05/05 04:00:23;;;;;;;15.05;6.85;;;5.60;99.90;;;;;;5020261;28;20049;-80
2022/05/05 04:05:34;;;;;;;13.48;7.15;;;5.60;99.90;;;;;;5020934;28;20137;-80
2022/05/05 04:08:02;;;;;;;15.65;6.53;;;5.70;99.90;;;;;;5020904;28;20049;-80
2022/05/05 04:10:27;;;;;;;14.05;7.40;;;5.70;99.90;;;;;;5020133;28;20419;-80
2022/05/05 04:12:54;;;;;;;14.32;7.80;;;5.70;99.90;;;;;;5020482;28;20041;-80
2022/05/05 04:15:19;;;;;;;10.75;6.22;;;5.60;99.90;;;;;;5020426;28;20049;-80
2022/05/05 04:17:45;;;;;;;15.95;7.18;;;5.60;99.90;;;;;;5020686;28;20071;-80
2022/05/05 04:20:11;;;;;;;16.48;7.15;;;5.50;99.90;;;;;;5020123;28;20411;-80
2022/05/05 04:22:37;;;;;;;14.20;7.13;;;5.50;99.90;;;;;;5020416;28;20128;-80
2022/05/05 04:25:03;;;;;;;15.45;7.63;;;5.40;99.90;;;;;;5019860;28;20109;-79
2022/05/05 04:27:29;;;;;;;14.75;7.18;;;5.40;99.90;;;;;;5019777;28;20125;-78
2022/05/05 04:29:54;;;;;;;17.65;7.43;;;5.30;99.90;;;;;;5017116;28;20069;-77
2022/05/05 04:32:20;;;;;;;12.48;7.25;;;5.30;99.90;;;;;;5016279;28;20046;-78
2022/05/05 04:34:47;;;;;;;12.80;6.90;;;5.30;99.90;;;;;;5020226;28;20046;-78
2022/05/05 04:37:13;;;;;;;15.40;7.00;;;5.30;99.90;;;;;;5004611;28;20041;-78
2022/05/05 04:39:39;;;;;;;13.85;7.47;;;5.30;99.90;;;;;;5040389;28;20049;-78
2022/05/05 04:42:05;;;;;;;13.52;7.22;;;5.30;99.90;;;;;;5023057;28;20025;-78
2022/05/05 04:44:31;;;;;;;14.55;7.10;;;5.30;99.90;;;;;;5026303;28;20037;-78
2022/05/05 04:46:56;;;;;;;16.90;7.45;;;5.30;99.90;;;;;;5025123;28;20045;-79
2022/05/05 04:49:22;;;;;;;12.65;7.20;;;5.30;99.90;;;;;;5021269;28;20041;-78
2022/05/05 04:51:47;;;;;;;13.55;7.65;;;5.30;99.90;;;;;;5019630;28;20056;-79
2022/05/05 04:54:13;;;;;;;18.92;8.35;;;5.40;99.90;;;;;;5003813;28;20396;-78
2022/05/05 04:56:38;;;;;;;14.10;7.10;;;5.30;99.90;;;;;;5021627;28;20073;-78
2022/05/05 04:59:04;;;;;;;13.88;7.40;;;5.30;99.90;;;;;;5024976;28;20105;-79
2022/05/05 05:01:29;;;;;;;14.13;7.75;;;5.40;99.90;;;;;;5024284;28;20069;-79
2022/05/05 05:03:55;;;;;;;15.73;7.95;;;5.40;99.90;;;;;;5034611;28;20042;-79
2022/05/05 05:06:20;;;;;;;15.95;8.20;;;5.40;99.90;;;;;;5014694;28;20049;-79
2022/05/05 05:08:47;;;;;;;14.07;7.40;;;5.40;99.90;;;;;;5014805;28;20041;-78
2022/05/05 05:11:13;;;;;;;15.63;8.68;;;5.50;99.90;;;;;;5013908;28;20128;-78
2022/05/05 05:13:38;;;;;;;15.77;7.82;;;5.60;99.90;;;;;;5014389;28;20484;-79
2022/05/05 05:16:04;;;;;;;12.70;7.95;;;5.60;99.90;;;;;;5015027;28;20048;-78
2022/05/05 05:18:30;;;;;;;18.88;8.27;;;5.80;99.90;;;;;;5032468;28;20048;-78
2022/05/05 05:20:56;;;;;;;19.70;9.55;;;6.10;99.90;;;;;;4998074;28;20038;-79
2022/05/05 05:23:22;;;;;;;17.85;8.52;;;6.50;99.90;;;;;;5014458;28;20033;-79
2022/05/05 05:25:48;;;;;;;16.35;6.95;;;7.10;99.90;;;;;;5015325;28;20046;-79
2022/05/05 05:28:14;;;;;;;11.82;6.78;;;7.70;99.90;;;;;;4999424;28;20068;-79
2022/05/05 05:30:40;;;;;;;17.85;7.65;;;8.30;99.90;;;;;;4998809;28;20042;-80
2022/05/05 05:33:06;;;;;;;14.23;7.65;;;8.90;99.90;;;;;;5016653;28;20045;-79
2022/05/05 05:35:33;;;;;;;19.10;8.20;;;9.30;99.90;;;;;;5000174;28;20487;-80
2022/05/05 05:37:58;;;;;;;14.05;7.93;;;9.80;99.90;;;;;;5000243;28;20056;-79
2022/05/05 05:40:24;;;;;;;14.48;8.07;;;10.10;99.90;;;;;;5015281;28;20045;-79
2022/05/05 05:42:49;;;;;;;15.77;7.97;;;10.20;99.90;;;;;;5014214;28;20116;-79
2022/05/05 05:45:15;;;;;;;16.95;8.55;;;10.10;99.90;;;;;;4997799;28;20077;-79
2022/05/05 05:47:41;;;;;;;15.07;7.47;;;10.00;99.90;;;;;;5014831;28;20041;-80
2022/05/05 05:50:07;;;;;;;14.65;7.90;;;9.90;99.90;;;;;;5014035;28;20045;-80
2022/05/05 05:52:33;;;;;;;17.30;7.47;;;9.80;99.90;;;;;;4999617;28;20042;-80
2022/05/05 05:54:58;;;;;;;10.75;7.07;;;9.70;99.90;;;;;;5014568;28;20048;-81
2022/05/05 05:57:25;;;;;;;13.60;8.07;;;9.50;99.90;;;;;;5014145;28;20049;-81
2022/05/05 05:59:50;;;;;;;17.00;9.10;;;9.40;99.90;;;;;;5029382;28;20091;-80
2022/05/05 06:05:00;;;;;;;15.25;8.18;;;9.70;99.90;;;;;;5013486;28;20132;-81
2022/05/05 06:07:28;;;;;;;16.13;8.20;;;10.20;99.90;;;;;;5014325;28;20120;-81
2022/05/05 06:09:54;;;;;;;13.05;7.85;;;10.60;99.90;;;;;;5016716;28;20167;-81
2022/05/05 06:12:20;;;;;;;19.38;8.35;;;11.20;99.90;;;;;;5000845;28;20391;-80
2022/05/05 06:14:45;;;;;;;19.67;9.43;;;11.80;99.90;;;;;;5033751;28;20083;-81
2022/05/05 06:17:11;;;;;;;17.00;7.72;;;12.50;99.90;;;;;;5001373;28;20091;-81
2022/05/05 06:19:36;;;;;;;17.33;8.90;;;13.00;99.90;;;;;;5016817;28;20107;-81
2022/05/05 06:22:02;;;;;;;14.05;8.20;;;13.50;99.90;;;;;;5001324;28;20033;-81
2022/05/05 06:24:28;;;;;;;16.85;8.02;;;14.00;99.90;;;;;;5035679;28;20091;-81
2022/05/05 06:26:53;;;;;;;16.52;8.70;;;14.40;99.90;;;;;;5002308;28;20033;-81
2022/05/05 06:29:19;;;;;;;17.52;7.70;;;14.80;99.90;;;;;;5020464;28;20121;-81
2022/05/05 06:31:44;;;;;;;17.63;8.50;;;15.00;99.90;;;;;;5018914;28;20092;-81
2022/05/05 06:34:10;;;;;;;12.38;7.45;;;15.30;99.90;;;;;;5036181;28;20041;-81
2022/05/05 06:36:36;;;;;;;10.93;7.38;;;15.60;99.90;;;;;;5001235;28;20044;-81
2022/05/05 06:39:01;;;;;;;14.10;7.50;;;15.70;99.90;;;;;;5000885;28;20136;-81
2022/05/05 06:41:28;;;;;;;13.00;7.07;;;15.90;99.90;;;;;;5002928;28;20042;-81
2022/05/05 06:43:54;;;;;;;17.20;8.13;;;16.10;99.90;;;;;;5020984;28;20033;-81
2022/05/05 06:46:20;;;;;;;10.95;7.63;;;16.30;99.90;;;;;;5021929;28;20558;-81
2022/05/05 06:48:45;;;;;;;12.30;7.53;;;16.40;99.90;;;;;;5007243;28;20048;-81
2022/05/05 06:51:11;;;;;;;14.82;7.82;;;16.60;99.90;;;;;;5007287;28;20483;-81
2022/05/05 06:53:37;;;;;;;11.20;7.35;;;16.90;99.90;;;;;;5006982;28;20068;-80
2022/05/05 06:56:03;;;;;;;12.90;7.38;;;16.80;99.90;;;;;;5006898;28;20081;-80
2022/05/05 06:58:28;;;;;;;13.60;7.70;;;16.50;99.90;;;;;;5022839;28;20037;-81
2022/05/05 07:03:38;;;;;;;15.32;7.60;;;15.90;99.90;;;;;;5023804;28;20053;-81
2022/05/05 07:06:05;;;;;;;11.57;7.57;;;15.70;99.90;;;;;;5022528;28;20105;-80
2022/05/05 07:10:52;;;;;;;12.82;7.07;;;15.70;99.90;;;;;;5007206;28;20120;-79
2022/05/05 07:11:19;;;;;;;12.65;6.90;;;15.60;99.90;;;;;;5023679;28;20045;-80
2022/05/05 07:13:45;;;;;;;14.73;7.35;;;15.60;99.90;;;;;;5024133;28;20692;-80
2022/05/05 07:16:11;;;;;;;14.60;6.75;;;15.60;99.90;;;;;;5024777;28;20056;-80
2022/05/05 07:18:36;;;;;;;16.85;7.40;;;15.90;99.90;;;;;;5022981;28;20042;-80
2022/05/05 07:21:02;;;;;;;13.32;6.32;;;16.30;99.90;;;;;;5004031;28;20038;-80
2022/05/05 07:23:27;;;;;;;14.32;6.70;;;16.90;99.90;;;;;;5023530;28;20120;-81
2022/05/05 07:25:53;;;;;;;10.88;5.88;;;17.40;99.90;;;;;;5004956;28;20041;-82
2022/05/05 07:28:18;;;;;;;9.63;5.72;;;18.00;99.90;;;;;;5006302;28;20061;-81
2022/05/05 07:30:44;;;;;;;16.27;5.68;;;18.50;99.90;;;;;;5004628;28;20069;-81
2022/05/05 07:33:10;;;;;;;11.73;5.07;;;19.00;99.90;;;;;;5006959;28;20044;-80
2022/05/05 07:35:38;;;;;;;10.27;5.80;;;19.20;98.60;;;;;;5022040;28;20041;-81
2022/05/05 07:38:04;;;;;;;11.80;5.68;;;19.40;97.50;;;;;;5036524;28;20052;-81
2022/05/05 07:40:29;;;;;;;10.40;5.15;;;19.70;95.70;;;;;;5019010;28;20069;-81
2022/05/05 07:42:55;;;;;;;11.45;4.80;;;20.10;93.30;;;;;;5053071;28;20079;-81
2022/05/05 07:45:21;;;;;;;13.63;5.60;;;20.40;90.70;;;;;;5051796;28;20046;-81
2022/05/05 07:47:47;;;;;;;13.35;6.40;;;20.70;90.10;;;;;;5022851;28;20484;-81
2022/05/05 07:50:12;;;;;;;12.02;4.88;;;20.80;85.10;;;;;;5000385;28;20050;-81
2022/05/05 07:52:39;;;;;;;12.50;4.43;;;20.70;83.50;;;;;;5015226;28;20496;-81
2022/05/05 07:55:05;;;;;;;7.72;4.43;;;20.60;84.30;;;;;;5014972;28;20120;-81
2022/05/05 07:57:31;;;;;;;9.95;4.50;;;20.60;80.00;;;;;;4998077;28;20087;-81
2022/05/05 07:59:57;;;;;;;10.13;4.32;;;20.60;79.10;;;;;;5014749;28;20046;-81
2022/05/05 08:02:22;;;;;;;8.77;4.20;;;20.60;75.50;;;;;;4998544;28;20044;-81
2022/05/05 08:04:48;;;;;;;10.73;4.57;;;20.50;71.80;;;;;;4999111;28;20034;-81
2022/05/05 08:07:14;;;;;;;10.70;4.15;;;20.30;74.60;;;;;;5016244;28;20037;-81
2022/05/05 08:09:39;;;;;;;11.02;4.97;;;20.10;72.30;;;;;;5019903;28;20052;-81
2022/05/05 08:12:06;;;;;;;10.10;4.78;;;20.10;71.00;;;;;;5002521;28;20040;-81
2022/05/05 08:14:32;;;;;;;9.60;4.38;;;20.20;72.30;;;;;;5015008;28;20416;-82
2022/05/05 08:16:58;;;;;;;9.05;4.47;;;20.20;69.10;;;;;;5000983;28;20039;-81
2022/05/05 08:19:24;;;;;;;10.10;4.93;;;20.00;67.20;;;;;;4999719;28;20111;-81
2022/05/05 08:21:50;;;;;;;8.00;4.38;;;19.90;69.70;;;;;;5016139;28;20049;-81
2022/05/05 08:29:45;;;;;;;8.82;5.03;;;19.60;70.30;;;;;;5037084;28;20049;-80
2022/05/05 08:32:11;;;;;;;6.60;4.72;;;19.70;71.60;;;;;;5020109;28;20049;-81
2022/05/05 08:34:37;;;;;;;15.38;4.97;;;19.70;69.50;;;;;;5022043;28;20125;-81
2022/05/05 08:37:03;;;;;;;10.57;4.72;;;19.80;69.40;;;;;;5021414;28;20037;-81
2022/05/05 08:39:28;;;;;;;10.82;4.50;;;19.80;73.60;;;;;;5001031;28;20037;-81
2022/05/05 08:41:57;;;;;;;9.98;5.13;;;19.80;70.00;;;;;;5019615;28;20408;-81
2022/05/05 08:44:22;;;;;;;12.23;5.13;;;19.70;72.70;;;;;;5035422;28;20100;-81
2022/05/05 08:46:49;;;;;;;10.88;4.45;;;19.80;71.80;;;;;;5018687;28;20033;-81
2022/05/05 08:49:20;;;;;;;11.05;4.90;;;19.80;67.70;;;;;;5020203;28;20091;-81
2022/05/05 08:51:49;;;;;;;7.97;4.90;;;20.10;66.10;;;;;;5040211;28;20272;-81
2022/05/05 08:54:18;;;;;;;9.35;4.80;;;19.90;66.90;;;;;;5041459;28;20120;-81
2022/05/05 08:56:45;;;;;;;12.52;5.28;;;19.70;68.50;;;;;;5023035;28;20037;-81
2022/05/05 08:59:13;;;;;;;7.70;4.70;;;19.60;67.80;;;;;;5020936;28;20067;-81
2022/05/05 09:01:39;;;;;;;10.93;5.78;;;19.50;69.10;;;;;;5021114;28;20048;-82
2022/05/05 09:04:06;;;;;;;8.32;5.40;;;19.50;67.90;;;;;;5040088;28;20037;-81
2022/05/05 09:06:46;;;;;;;10.80;5.80;;;19.50;68.00;;;;;;5037236;28;20060;-81
2022/05/05 09:09:27;;;;;;;9.52;5.38;;;19.60;74.80;;;;;;5005450;28;20064;-80
2022/05/05 09:12:18;;;;;;;12.40;5.88;;;19.80;64.30;;;;;;5021361;28;20041;-81
2022/05/05 09:14:49;;;;;;;10.13;6.13;;;19.90;71.60;;;;;;5038958;28;20051;-81
2022/05/05 09:17:29;;;;;;;12.73;5.80;;;20.10;62.90;;;;;;5038731;28;20056;-81
2022/05/05 09:19:56;;;;;;;10.43;5.47;;;20.30;66.40;;;;;;5018928;28;20077;-81
2022/05/05 09:22:23;;;;;;;7.50;5.97;;;20.60;65.00;;;;;;5004426;28;20472;-81
2022/05/05 09:24:51;;;;;;;9.95;6.18;;;20.60;62.40;;;;;;5038558;28;20435;-81
2022/05/05 09:27:27;;;;;;;11.48;5.95;;;20.40;63.20;;;;;;5021416;28;20049;-81
2022/05/05 09:30:08;;;;;;;16.23;6.57;;;20.30;63.10;;;;;;5037602;28;20412;-80
2022/05/05 09:32:40;;;;;;;11.88;6.32;;;20.40;64.90;;;;;;5037110;28;20029;-81
2022/05/05 09:35:07;;;;;;;;;;;20.60;64.70;;;;;;5037236;28;20033;-80
2022/05/05 09:37:33;;;;;;;9.65;5.85;;;20.40;60.60;;;;;;5038091;28;20058;-82
2022/05/05 09:40:00;;;;;;;12.60;6.22;;;20.20;66.40;;;;;;5037840;28;20541;-81
2022/05/05 09:42:38;;;;;;;9.98;5.45;;;20.10;67.20;;;;;;5022159;28;20060;-81
2022/05/05 09:45:19;;;;;;;8.30;5.93;;;20.10;66.30;;;;;;5041896;28;20107;-81
2022/05/05 09:47:49;;;;;;;10.27;5.95;;;20.30;67.80;;;;;;5043742;28;20097;-81
2022/05/05 09:50:19;;;;;;;10.07;6.60;;;20.60;64.50;;;;;;5008711;28;20132;-81
2022/05/05 09:58:18;;;;;;;8.50;5.50;;;21.60;64.10;;;;;;5021340;28;20057;-81
2022/05/05 10:00:58;;;;;;;7.95;5.82;;;21.70;62.30;;;;;;5023475;28;20034;-81
2022/05/05 10:06:36;;;;;;;7.90;5.07;;;21.20;57.90;;;;;;5044343;28;20115;-81
2022/05/05 10:09:03;;;;;;;8.73;5.03;;;21.00;58.00;;;;;;5044192;28;20049;-81
2022/05/05 10:11:30;;;;;;;9.95;5.93;;;21.10;57.60;;;;;;5043502;28;20048;-80
2022/05/05 10:13:56;;;;;;;9.18;5.28;;;20.80;58.30;;;;;;5043929;28;20044;-80
2022/05/05 10:16:22;;;;;;;7.88;5.07;;;20.80;59.70;;;;;;5026426;28;20056;-80
2022/05/05 10:18:50;;;;;;;8.60;5.45;;;21.00;59.00;;;;;;5043814;28;20101;-82
2022/05/05 10:21:43;;;;;;;9.50;4.85;;;21.30;62.70;;;;;;5024423;28;20033;-81
2022/05/05 10:24:26;;;;;;;10.00;5.28;;;21.50;58.60;;;;;;5023599;28;20076;-82
2022/05/05 10:26:55;;;;;;;6.28;5.38;;;21.70;55.40;;;;;;5009210;28;20073;-81
2022/05/05 10:29:33;;;;;;;8.20;4.97;;;21.60;57.70;;;;;;5007329;28;20044;-81
2022/05/05 10:32:10;;;;;;;6.00;4.88;;;21.70;56.30;;;;;;5025341;28;20111;-80
2022/05/05 10:34:40;;;;;;;9.23;5.57;;;21.80;56.10;;;;;;5010477;28;20056;-81
2022/05/05 10:37:08;;;;;;;9.65;5.15;;;21.90;55.90;;;;;;5011483;28;20033;-81
2022/05/05 10:39:47;;;;;;;10.73;5.20;;;21.90;57.30;;;;;;5014573;28;20048;-80
2022/05/05 10:42:14;;;;;;;8.52;5.35;;;22.00;52.70;;;;;;5048742;28;20034;-81
2022/05/05 10:45:12;;;;;;;10.50;5.45;;;22.00;52.90;;;;;;5023578;28;20480;-81
2022/05/05 10:47:50;;;;;;;7.55;5.40;;;21.90;53.90;;;;;;5040055;28;20057;-81
2022/05/05 10:50:36;;;;;;;8.43;5.93;;;21.90;53.40;;;;;;5023653;28;20098;-80
2022/05/05 10:53:03;;;;;;;9.73;6.25;;;21.60;51.40;;;;;;5011055;28;20041;-80
2022/05/05 10:55:39;;;;;;;9.25;5.72;;;21.10;53.40;;;;;;5048290;28;20491;-81
2022/05/05 10:58:05;;;;;;;9.75;5.95;;;20.70;53.40;;;;;;5043126;28;20156;-81
2022/05/05 11:00:42;;;;;;;7.70;4.53;;;20.30;55.50;;;;;;5021958;28;20093;-81
2022/05/05 11:03:10;;;;;;;7.10;4.55;;;20.30;54.80;;;;;;5006213;28;20056;-81
2022/05/05 11:05:40;;;;;;;8.85;5.22;;;20.40;55.20;;;;;;5038703;28;20037;-80
2022/05/05 11:08:17;;;;;;;12.13;5.00;;;20.60;54.70;;;;;;5037524;28;20531;-81
2022/05/05 11:13:39;;;;;;;12.18;6.40;;;20.70;59.90;;;;;;5016856;28;20057;-78
2022/05/05 11:22:25;;;;;;;10.40;5.75;;;20.80;58.70;;;;;;4956153;28;20131;-78
2022/05/05 11:24:52;;;;;;;8.65;4.70;;;20.90;59.40;;;;;;5004425;28;20415;-77
2022/05/05 11:27:22;;;;;;;8.80;4.90;;;21.20;59.30;;;;;;5015418;28;20120;-76
2022/05/05 11:29:50;;;;;;;8.73;5.47;;;21.40;60.90;;;;;;5032474;28;20045;-76
2022/05/05 11:32:16;;;;;;;8.35;5.03;;;21.50;58.90;;;;;;5031499;28;20096;-77
2022/05/05 11:34:45;;;;;;;13.23;5.78;;;21.60;57.70;;;;;;5034814;28;20531;-76
2022/05/05 11:37:11;;;;;;;9.45;5.40;;;21.50;56.40;;;;;;5020886;28;20040;-76
2022/05/05 11:39:37;;;;;;;8.00;4.13;;;21.40;57.40;;;;;;5031300;28;20041;-77
2022/05/05 11:42:07;;;;;;;12.20;3.88;;;21.30;56.60;;;;;;5015002;28;20057;-76
2022/05/05 11:44:44;;;;;;;8.23;4.82;;;21.40;56.70;;;;;;5015238;28;20447;-77
2022/05/05 11:47:13;;;;;;;8.10;4.93;;;21.40;59.10;;;;;;5015301;28;20411;-77
2022/05/05 11:49:43;;;;;;;11.15;5.82;;;21.60;59.50;;;;;;5014842;28;20048;-76
2022/05/05 11:52:14;;;;;;;7.35;5.35;;;21.70;58.90;;;;;;5015107;28;20046;-79
2022/05/05 11:54:39;;;;;;;9.00;5.15;;;21.80;57.80;;;;;;5014695;28;20046;-77
2022/05/05 11:57:05;;;;;;;6.38;4.57;;;21.90;57.40;;;;;;5032252;28;20404;-77
2022/05/05 12:02:18;;;;;;;11.75;5.88;;;21.80;55.50;;;;;;5014829;28;20418;-77
2022/05/05 12:04:45;;;;;;;6.05;4.22;;;21.60;55.60;;;;;;5014422;28;20048;-78
2022/05/05 12:07:20;;;;;;;7.97;4.88;;;21.60;57.20;;;;;;5014977;28;20068;-78
2022/05/05 12:09:47;;;;;;;7.78;4.55;;;21.50;57.30;;;;;;5014606;28;20049;-77
2022/05/05 12:12:16;;;;;;;8.38;5.05;;;21.40;57.50;;;;;;5014281;28;20041;-76
2022/05/05 12:14:44;;;;;;;9.13;4.43;;;21.30;57.70;;;;;;5015363;28;20054;-80
2022/05/05 12:17:23;;;;;;;11.32;5.53;;;21.30;57.70;;;;;;5014264;28;20058;-78
2022/05/05 12:19:57;;;;;;;8.70;4.95;;;21.30;58.50;;;;;;4997307;28;20037;-79
2022/05/05 12:22:43;;;;;;;6.63;4.28;;;21.10;55.70;;;;;;5014227;28;20538;-79
2022/05/05 12:25:14;;;;;;;8.15;4.25;;;21.10;57.60;;;;;;4998486;28;20045;-80
2022/05/05 12:27:45;;;;;;;8.90;5.15;;;21.10;57.70;;;;;;5014219;28;20041;-79
2022/05/05 12:30:14;;;;;;;8.93;5.03;;;21.20;56.80;;;;;;5014799;28;20041;-80
2022/05/05 12:32:50;;;;;;;7.75;5.07;;;21.20;57.50;;;;;;4998649;28;20397;-79
2022/05/05 12:35:17;;;;;;;10.75;5.30;;;21.30;57.50;;;;;;5014156;28;20056;-78
2022/05/05 12:37:43;;;;;;;8.65;4.95;;;21.30;56.50;;;;;;5030149;28;20499;-79
2022/05/05 12:40:10;;;;;;;6.97;5.20;;;21.40;56.40;;;;;;5031213;28;20033;-79
2022/05/05 12:42:39;;;;;;;6.53;4.78;;;21.30;55.40;;;;;;5013852;28;20052;-79
2022/05/05 12:45:16;;;;;;;9.70;4.82;;;21.30;55.70;;;;;;5013863;28;20476;-78
2022/05/05 12:47:47;;;;;;;8.73;5.18;;;21.20;56.30;;;;;;5014872;28;20052;-80
2022/05/05 12:50:48;;;;;;;16.60;5.80;;;21.20;56.80;;;;;;5013444;28;20045;-80
2022/05/05 13:01:42;;;;;;;6.85;4.60;;;20.90;56.60;;;;;;5013301;28;20107;-80
2022/05/05 13:04:12;;;;;;;9.18;4.75;;;21.10;56.80;;;;;;4997822;28;20484;-79
2022/05/05 13:06:39;;;;;;;8.13;5.10;;;21.20;56.10;;;;;;5013681;28;20065;-79
2022/05/05 13:09:08;;;;;;;7.43;4.60;;;21.30;55.00;;;;;;5013388;28;20488;-78
2022/05/05 13:11:34;;;;;;;8.70;4.47;;;21.40;55.50;;;;;;4997210;28;20041;-80
2022/05/05 13:14:01;;;;;;;8.02;4.30;;;21.70;54.60;;;;;;5013623;28;20095;-79
2022/05/05 13:16:27;;;;;;;7.90;4.63;;;21.80;52.70;;;;;;5012939;28;20052;-78
2022/05/05 13:18:53;;;;;;;7.38;4.15;;;21.70;52.40;;;;;;5012642;28;20440;-79
2022/05/05 13:21:18;;;;;;;7.25;4.90;;;21.40;52.70;;;;;;5013045;28;20045;-79
2022/05/05 13:23:44;;;;;;;9.57;4.97;;;21.10;53.20;;;;;;5013349;28;20045;-79
2022/05/05 13:26:11;;;;;;;11.23;4.70;;;20.70;53.90;;;;;;4997002;28;20076;-80
2022/05/05 13:28:38;;;;;;;7.20;4.30;;;20.50;55.80;;;;;;5013259;28;20061;-78
2022/05/05 13:31:03;;;;;;;9.50;4.93;;;20.30;56.10;;;;;;4996471;28;20037;-78
2022/05/05 13:33:29;;;;;;;8.70;4.85;;;20.30;58.00;;;;;;5013112;28;20052;-79
2022/05/05 13:35:55;;;;;;;8.75;4.90;;;20.50;56.10;;;;;;4997076;28;20048;-79
2022/05/05 13:38:23;;;;;;;11.23;5.05;;;20.70;54.60;;;;;;5012910;28;20488;-79
2022/05/05 13:40:48;;;;;;;5.70;4.18;;;20.80;53.30;;;;;;5012641;28;20052;-79
2022/05/05 13:43:14;;;;;;;7.95;4.47;;;20.90;54.10;;;;;;5033083;28;20036;-80
2022/05/05 13:45:40;;;;;;;9.80;4.60;;;21.20;53.20;;;;;;5031547;28;20046;-79